Time;durP1;ratioP1;P1;durP2;ratioP2;P2;SDS_P1;SDS_P2;PMS_P1;PMS_P2;Temp;Humidity;BMP_temperature;BMP_pressure;BME280_temperature;BME280_humidity;BME280_pressure;Samples;Min_cycle;Max_cycle;Signal;HPM_P1;HPM_P2
2022/11/18 00:02:12;;;;;;;5.45;3.38;;;;;;;;;;5031453;28;20144;-79
2022/11/18 00:04:38;;;;;;;6.95;3.90;;;;;;;;;;5049806;28;20049;-78
2022/11/18 00:07:05;;;;;;;6.55;4.00;;;;;;;;;;5066558;28;20100;-78
2022/11/18 00:09:31;;;;;;;7.22;4.13;;;;;;;;;;5042488;28;20042;-78
2022/11/18 00:14:43;;;;;;;6.88;4.00;;;;;;;;;;5046052;28;20045;-79
2022/11/18 00:17:09;;;;;;;8.25;4.53;;;;;;;;;;5035325;28;20053;-78
2022/11/18 00:19:36;;;;;;;7.13;4.32;;;;;;;;;;5035717;28;20057;-79
2022/11/18 00:22:04;;;;;;;6.43;4.38;;;;;;;;;;5035356;28;20053;-77
2022/11/18 00:24:31;;;;;;;8.60;4.65;;;;;;;;;;5035633;28;20148;-79
2022/11/18 00:26:58;;;;;;;8.88;4.20;;;;;;;;;;5035852;28;20504;-79
2022/11/18 00:29:28;;;;;;;7.22;4.47;;;;;;;;;;5036250;28;20503;-79
2022/11/18 00:31:54;;;;;;;12.40;4.32;;;;;;;;;;5034374;28;20405;-78
2022/11/18 00:34:21;;;;;;;8.60;4.65;;;;;;;;;;5034128;28;20045;-78
2022/11/18 00:36:47;;;;;;;9.15;4.85;;;;;;;;;;5035351;28;20490;-79
2022/11/18 00:39:15;;;;;;;8.88;4.45;;;;;;;;;;5035244;28;20413;-77
2022/11/18 00:44:27;;;;;;;8.40;5.35;;;;;;;;;;5033808;28;20085;-79
2022/11/18 00:46:54;;;;;;;9.18;4.40;;;;;;;;;;5035453;28;20055;-81
2022/11/18 00:49:20;;;;;;;8.25;4.88;;;;;;;;;;5036671;28;20059;-80
2022/11/18 00:51:47;;;;;;;7.45;4.35;;;;;;;;;;5035996;28;20052;-81
2022/11/18 00:54:13;;;;;;;7.90;5.15;;;;;;;;;;5036046;28;20049;-80
2022/11/18 00:56:40;;;;;;;8.27;5.07;;;;;;;;;;5035721;28;20168;-81
2022/11/18 00:59:06;;;;;;;9.48;4.70;;;;;;;;;;5035257;28;20129;-79
2022/11/18 01:01:33;;;;;;;9.80;4.78;;;;;;;;;;5042613;28;20049;-79
2022/11/18 01:04:00;;;;;;;8.52;5.00;;;;;;;;;;5042832;28;20053;-79
2022/11/18 01:06:26;;;;;;;8.88;4.82;;;;;;;;;;5055259;28;20119;-79
2022/11/18 01:08:53;;;;;;;9.60;5.10;;;;;;;;;;5054838;28;20055;-79
2022/11/18 01:14:04;;;;;;;9.98;4.97;;;;;;;;;;5047561;28;20041;-80
2022/11/18 01:16:31;;;;;;;7.38;4.40;;;;;;;;;;5033325;28;20049;-80
2022/11/18 01:18:57;;;;;;;9.32;4.82;;;;;;;;;;5033662;28;20212;-80
2022/11/18 01:21:23;;;;;;;9.75;5.30;;;;;;;;;;5035254;28;20064;-79
2022/11/18 01:23:50;;;;;;;9.07;4.95;;;;;;;;;;5031597;28;20053;-80
2022/11/18 01:26:17;;;;;;;8.65;5.38;;;;;;;;;;5033759;28;20071;-79
2022/11/18 01:28:43;;;;;;;10.75;5.38;;;;;;;;;;5033104;28;20197;-78
2022/11/18 01:31:11;;;;;;;10.48;5.28;;;;;;;;;;5033915;28;20053;-79
2022/11/18 01:33:38;;;;;;;9.90;5.30;;;;;;;;;;5031888;28;20530;-80
2022/11/18 01:36:04;;;;;;;7.97;5.22;;;;;;;;;;5034127;28;20422;-80
2022/11/18 01:38:30;;;;;;;8.57;4.90;;;;;;;;;;5033977;28;20049;-81
2022/11/18 01:40:57;;;;;;;9.85;5.47;;;;;;;;;;5035994;28;20068;-79
2022/11/18 01:43:23;;;;;;;9.75;4.97;;;;;;;;;;5035066;28;20059;-77
2022/11/18 01:45:52;;;;;;;10.40;5.07;;;;;;;;;;5038823;28;20061;-79
2022/11/18 01:48:27;;;;;;;8.85;4.93;;;;;;;;;;5042035;28;20056;-79
2022/11/18 01:51:02;;;;;;;9.13;4.82;;;;;;;;;;5041836;28;20127;-80
2022/11/18 01:53:31;;;;;;;9.00;5.33;;;;;;;;;;5036115;28;20395;-79
2022/11/18 01:55:59;;;;;;;11.13;5.43;;;;;;;;;;5034943;28;20045;-80
2022/11/18 01:58:27;;;;;;;9.98;5.45;;;;;;;;;;5033464;28;20060;-78
2022/11/18 02:00:53;;;;;;;13.27;5.28;;;;;;;;;;5033925;28;20057;-80
2022/11/18 02:03:20;;;;;;;8.43;5.15;;;;;;;;;;5035577;28;20049;-78
2022/11/18 02:05:48;;;;;;;9.15;5.50;;;;;;;;;;5055770;28;20053;-78
2022/11/18 02:08:16;;;;;;;12.38;5.85;;;;;;;;;;5052817;28;20438;-78
2022/11/18 02:10:42;;;;;;;9.65;5.55;;;;;;;;;;5052313;28;20064;-79
2022/11/18 02:13:10;;;;;;;10.25;5.82;;;;;;;;;;5050749;28;20045;-78
2022/11/18 02:15:42;;;;;;;11.30;5.60;;;;;;;;;;5035347;28;20161;-79
2022/11/18 02:18:17;;;;;;;13.15;5.90;;;;;;;;;;5030610;28;20055;-78
2022/11/18 02:20:45;;;;;;;10.82;5.32;;;;;;;;;;5031033;28;20049;-80
2022/11/18 02:23:40;;;;;;;9.15;5.20;;;;;;;;;;5030487;28;20144;-78
2022/11/18 02:26:27;;;;;;;11.73;5.35;;;;;;;;;;4994469;28;20069;-78
2022/11/18 02:29:03;;;;;;;11.43;5.95;;;;;;;;;;5029658;28;20049;-79
2022/11/18 02:31:31;;;;;;;9.60;5.60;;;;;;;;;;5031524;28;20045;-78
2022/11/18 02:34:05;;;;;;;10.25;5.30;;;;;;;;;;5029668;28;20045;-79
2022/11/18 02:36:37;;;;;;;11.18;5.97;;;;;;;;;;5031174;28;20145;-79
2022/11/18 02:39:07;;;;;;;11.70;6.22;;;;;;;;;;5032681;28;20088;-79
2022/11/18 02:41:35;;;;;;;10.35;5.53;;;;;;;;;;5040955;28;20049;-79
2022/11/18 02:44:08;;;;;;;8.95;5.47;;;;;;;;;;5038993;28;20108;-78
2022/11/18 02:46:37;;;;;;;11.07;6.43;;;;;;;;;;5050751;28;20473;-77
2022/11/18 02:49:08;;;;;;;11.07;6.25;;;;;;;;;;5050938;28;20045;-80
2022/11/18 02:51:35;;;;;;;10.23;6.30;;;;;;;;;;5053179;28;20041;-79
2022/11/18 02:54:04;;;;;;;11.63;6.50;;;;;;;;;;5051856;28;20053;-80
2022/11/18 02:56:32;;;;;;;11.43;6.38;;;;;;;;;;5051918;28;20079;-80
2022/11/18 02:58:58;;;;;;;10.88;5.60;;;;;;;;;;5052122;28;20053;-79
2022/11/18 03:01:26;;;;;;;10.07;5.78;;;;;;;;;;5051245;28;20140;-78
2022/11/18 03:03:52;;;;;;;10.90;6.57;;;;;;;;;;5049789;28;20516;-79
2022/11/18 03:06:35;;;;;;;11.80;6.47;;;;;;;;;;5051237;28;20048;-80
2022/11/18 03:09:02;;;;;;;11.13;6.65;;;;;;;;;;5050864;28;20538;-79
2022/11/18 03:11:29;;;;;;;11.40;6.50;;;;;;;;;;5052193;28;20045;-79
2022/11/18 03:14:04;;;;;;;13.80;6.32;;;;;;;;;;5048503;28;20126;-80
2022/11/18 03:16:35;;;;;;;10.52;6.20;;;;;;;;;;5031791;28;20045;-79
2022/11/18 03:19:01;;;;;;;10.98;5.53;;;;;;;;;;5031689;28;20056;-79
2022/11/18 03:21:35;;;;;;;13.70;7.40;;;;;;;;;;5031664;28;20363;-79
2022/11/18 03:24:31;;;;;;;10.43;6.10;;;;;;;;;;5030800;28;20461;-80
2022/11/18 03:26:57;;;;;;;;;;;;;;;;;;5022996;28;20160;-80
2022/11/18 03:29:33;;;;;;;11.38;6.55;;;;;;;;;;5047016;28;19920;-80
2022/11/18 03:32:04;;;;;;;10.07;6.00;;;;;;;;;;5050176;28;20060;-80
2022/11/18 03:34:36;;;;;;;11.30;6.20;;;;;;;;;;5051387;28;20516;-80
2022/11/18 03:37:04;;;;;;;9.20;6.03;;;;;;;;;;5052175;28;20040;-80
2022/11/18 03:39:37;;;;;;;11.68;6.10;;;;;;;;;;5040574;28;20460;-80
2022/11/18 03:42:24;;;;;;;10.98;6.45;;;;;;;;;;5041776;28;20063;-79
2022/11/18 03:44:53;;;;;;;11.02;6.13;;;;;;;;;;5045514;28;20159;-80
2022/11/18 03:47:27;;;;;;;12.65;6.55;;;;;;;;;;5035252;28;20065;-80
2022/11/18 03:50:05;;;;;;;9.87;5.80;;;;;;;;;;5034780;28;20048;-79
2022/11/18 03:52:33;;;;;;;10.52;6.60;;;;;;;;;;5032748;28;20702;-79
2022/11/18 03:55:02;;;;;;;10.68;6.43;;;;;;;;;;5035705;28;20136;-79
2022/11/18 03:57:41;;;;;;;13.93;6.93;;;;;;;;;;5034798;28;20060;-80
2022/11/18 04:00:09;;;;;;;10.93;6.50;;;;;;;;;;5034973;28;20156;-79
2022/11/18 04:02:36;;;;;;;11.23;6.90;;;;;;;;;;5034487;28;20068;-78
2022/11/18 04:05:04;;;;;;;15.43;7.25;;;;;;;;;;5053657;28;20045;-80
2022/11/18 04:07:31;;;;;;;12.45;7.32;;;;;;;;;;5055508;28;20131;-78
2022/11/18 04:10:08;;;;;;;12.00;7.30;;;;;;;;;;5054378;28;20053;-78
2022/11/18 04:12:36;;;;;;;14.00;7.40;;;;;;;;;;5052479;28;20167;-80
2022/11/18 04:15:03;;;;;;;12.80;7.05;;;;;;;;;;5044101;28;20466;-79
2022/11/18 04:17:29;;;;;;;14.00;7.32;;;;;;;;;;5034685;28;20512;-78
2022/11/18 04:19:56;;;;;;;12.60;7.43;;;;;;;;;;5036199;28;20458;-78
2022/11/18 04:22:22;;;;;;;11.85;7.30;;;;;;;;;;5034269;28;20049;-79
2022/11/18 04:24:49;;;;;;;13.85;7.45;;;;;;;;;;5034871;28;20052;-78
2022/11/18 04:27:15;;;;;;;12.93;8.07;;;;;;;;;;5035313;28;20046;-79
2022/11/18 04:29:41;;;;;;;14.50;8.10;;;;;;;;;;5033817;28;20049;-78
2022/11/18 04:32:08;;;;;;;14.18;7.90;;;;;;;;;;5032972;28;20059;-78
2022/11/18 04:34:34;;;;;;;14.90;7.65;;;;;;;;;;5038981;28;20076;-78
2022/11/18 04:37:01;;;;;;;13.90;7.35;;;;;;;;;;5034811;28;20091;-79
2022/11/18 04:39:28;;;;;;;13.13;7.28;;;;;;;;;;5035719;28;20324;-78
2022/11/18 04:41:54;;;;;;;12.80;7.32;;;;;;;;;;5037482;28;20053;-77
2022/11/18 04:44:25;;;;;;;13.23;7.55;;;;;;;;;;5033739;28;20076;-77
2022/11/18 04:46:52;;;;;;;13.48;7.63;;;;;;;;;;5033281;28;20089;-79
2022/11/18 04:49:18;;;;;;;13.65;8.05;;;;;;;;;;5033625;28;20045;-77
2022/11/18 04:51:46;;;;;;;12.63;7.43;;;;;;;;;;5033389;28;20137;-76
2022/11/18 04:54:14;;;;;;;14.10;7.38;;;;;;;;;;5032881;28;20076;-79
2022/11/18 04:56:41;;;;;;;10.30;7.00;;;;;;;;;;5032893;28;20049;-78
2022/11/18 04:59:15;;;;;;;12.63;7.05;;;;;;;;;;5034381;28;20144;-78
2022/11/18 05:01:42;;;;;;;14.38;8.05;;;;;;;;;;5032267;28;20091;-77
2022/11/18 05:04:13;;;;;;;12.63;7.18;;;;;;;;;;5042668;28;20522;-77
2022/11/18 05:06:39;;;;;;;13.95;7.30;;;;;;;;;;5053276;28;20049;-75
2022/11/18 05:09:05;;;;;;;12.32;7.30;;;;;;;;;;5053322;28;20055;-78
2022/11/18 05:14:17;;;;;;;13.30;7.45;;;;;;;;;;5052433;28;20047;-78
2022/11/18 05:16:43;;;;;;;13.88;7.43;;;;;;;;;;5061354;28;20049;-76
2022/11/18 05:19:10;;;;;;;15.90;8.00;;;;;;;;;;5067973;28;20236;-79
2022/11/18 05:21:36;;;;;;;15.80;7.57;;;;;;;;;;5055637;28;20044;-76
2022/11/18 05:24:03;;;;;;;13.15;7.35;;;;;;;;;;5052200;28;20059;-79
2022/11/18 05:26:30;;;;;;;16.25;8.00;;;;;;;;;;5052280;28;20059;-79
2022/11/18 05:28:56;;;;;;;13.20;7.18;;;;;;;;;;5052435;28;20052;-78
2022/11/18 05:31:23;;;;;;;14.30;7.75;;;;;;;;;;5052328;28;20507;-78
2022/11/18 05:33:49;;;;;;;13.40;8.02;;;;;;;;;;5050197;28;20418;-78
2022/11/18 05:36:17;;;;;;;14.73;7.63;;;;;;;;;;5053410;28;20045;-80
2022/11/18 05:38:44;;;;;;;17.13;8.43;;;;;;;;;;5052335;28;20053;-79
2022/11/18 05:43:09;;;;;;;24.70;10.90;;;;;;;;;;5051826;28;20048;-80
2022/11/18 05:43:57;;;;;;;21.75;11.27;;;;;;;;;;5051443;28;20425;-79
2022/11/18 05:46:24;;;;;;;29.38;15.13;;;;;;;;;;5051082;28;20053;-79
2022/11/18 05:48:50;;;;;;;26.05;13.32;;;;;;;;;;5051096;28;20045;-77
2022/11/18 05:51:17;;;;;;;20.80;11.68;;;;;;;;;;5052985;28;20059;-80
2022/11/18 05:53:43;;;;;;;22.27;10.88;;;;;;;;;;5050841;28;20053;-79
2022/11/18 05:56:21;;;;;;;19.00;10.68;;;;;;;;;;5052658;28;20162;-80
2022/11/18 05:58:47;;;;;;;15.93;9.45;;;;;;;;;;5051312;28;20045;-80
2022/11/18 06:01:17;;;;;;;18.88;9.35;;;;;;;;;;5057604;28;20112;-81
2022/11/18 06:03:44;;;;;;;20.85;10.63;;;;;;;;;;5052997;28;20312;-81
2022/11/18 06:06:11;;;;;;;23.15;12.00;;;;;;;;;;5057227;28;20425;-80
2022/11/18 06:08:39;;;;;;;23.17;13.20;;;;;;;;;;5054584;28;20167;-81
2022/11/18 06:11:07;;;;;;;27.90;13.82;;;;;;;;;;5054418;28;20049;-81
2022/11/18 06:13:36;;;;;;;30.35;14.80;;;;;;;;;;5055992;28;20045;-79
2022/11/18 06:16:02;;;;;;;29.50;15.73;;;;;;;;;;5035890;28;20049;-81
2022/11/18 06:18:30;;;;;;;33.97;17.05;;;;;;;;;;5031415;28;20053;-80
2022/11/18 06:21:02;;;;;;;32.38;16.60;;;;;;;;;;5032029;28;20083;-79
2022/11/18 06:23:31;;;;;;;39.42;17.95;;;;;;;;;;5033928;28;20502;-79
2022/11/18 06:25:57;;;;;;;43.05;18.35;;;;;;;;;;5036543;28;20059;-80
2022/11/18 06:28:24;;;;;;;38.70;18.65;;;;;;;;;;5035342;28;20083;-81
2022/11/18 06:30:51;;;;;;;58.20;18.92;;;;;;;;;;5046318;28;20128;-81
2022/11/18 06:33:17;;;;;;;44.33;19.52;;;;;;;;;;5051041;28;20037;-81
2022/11/18 06:35:44;;;;;;;37.88;18.25;;;;;;;;;;5053876;28;20448;-80
2022/11/18 06:38:10;;;;;;;40.80;18.17;;;;;;;;;;5053847;28;20041;-80
2022/11/18 06:40:37;;;;;;;41.85;17.42;;;;;;;;;;5046490;28;20045;-79
2022/11/18 06:48:37;;;;;;;47.30;16.75;;;;;;;;;;5049925;28;20053;-81
2022/11/18 06:51:04;;;;;;;55.40;16.85;;;;;;;;;;5051924;28;20049;-80
2022/11/18 06:53:32;;;;;;;51.90;16.48;;;;;;;;;;5046308;28;20048;-79
2022/11/18 06:56:01;;;;;;;47.45;16.52;;;;;;;;;;5050501;28;20051;-78
2022/11/18 06:58:28;;;;;;;38.00;17.13;;;;;;;;;;5043282;28;20084;-80
2022/11/18 07:00:54;;;;;;;42.97;17.27;;;;;;;;;;5051411;28;20045;-80
2022/11/18 07:03:21;;;;;;;61.40;16.65;;;;;;;;;;5047746;28;20445;-79
2022/11/18 07:05:47;;;;;;;41.33;17.45;;;;;;;;;;5053603;28;20103;-80
2022/11/18 07:08:13;;;;;;;46.13;17.75;;;;;;;;;;5053639;28;20053;-81
2022/11/18 07:10:40;;;;;;;50.72;18.27;;;;;;;;;;5054431;28;20047;-80
2022/11/18 07:13:06;;;;;;;46.97;17.75;;;;;;;;;;5054136;28;20045;-77
2022/11/18 07:15:33;;;;;;;44.28;18.80;;;;;;;;;;5057844;28;20061;-80
2022/11/18 07:17:59;;;;;;;45.15;17.63;;;;;;;;;;5058568;28;20049;-80
2022/11/18 07:20:25;;;;;;;39.85;17.70;;;;;;;;;;5062435;28;20055;-78
2022/11/18 07:22:52;;;;;;;45.65;18.42;;;;;;;;;;5059349;28;20053;-79
2022/11/18 07:25:19;;;;;;;39.35;18.88;;;;;;;;;;5057395;28;20484;-80
2022/11/18 07:27:46;;;;;;;38.80;17.65;;;;;;;;;;5058946;28;20064;-80
2022/11/18 07:30:12;;;;;;;34.85;17.38;;;;;;;;;;5059580;28;20052;-80
2022/11/18 07:32:39;;;;;;;45.03;17.90;;;;;;;;;;5058378;28;20496;-79
2022/11/18 07:35:05;;;;;;;39.30;17.27;;;;;;;;;;5050469;28;20056;-80
2022/11/18 07:37:32;;;;;;;29.15;15.00;;;;;;;;;;5059252;28;20527;-81
2022/11/18 07:39:58;;;;;;;32.90;16.25;;;;;;;;;;5055336;28;20055;-79
2022/11/18 07:42:25;;;;;;;37.30;17.23;;;;;;;;;;5043809;28;20084;-78
2022/11/18 07:44:52;;;;;;;35.00;17.70;;;;;;;;;;5033687;28;20184;-78
2022/11/18 07:47:18;;;;;;;39.95;17.70;;;;;;;;;;5039626;28;20056;-79
2022/11/18 07:49:44;;;;;;;40.63;18.05;;;;;;;;;;5073682;28;20049;-78
2022/11/18 07:52:11;;;;;;;31.20;16.23;;;;;;;;;;5063001;28;20057;-77
2022/11/18 07:54:37;;;;;;;30.95;15.52;;;;;;;;;;5052810;28;20041;-80
2022/11/18 07:57:03;;;;;;;30.02;15.00;;;;;;;;;;5056150;28;20048;-81
2022/11/18 07:59:30;;;;;;;31.73;15.30;;;;;;;;;;5054762;28;20061;-81
2022/11/18 08:01:56;;;;;;;41.25;16.50;;;;;;;;;;5055422;28;20049;-79
2022/11/18 08:04:23;;;;;;;32.40;15.57;;;;;;;;;;5057546;28;20196;-81
2022/11/18 08:06:49;;;;;;;33.63;15.75;;;;;;;;;;5058883;28;20072;-81
2022/11/18 08:09:16;;;;;;;35.20;15.80;;;;;;;;;;5058607;28;20164;-81
2022/11/18 08:11:42;;;;;;;41.25;16.00;;;;;;;;;;5058458;28;20049;-79
2022/11/18 08:14:09;;;;;;;39.20;15.70;;;;;;;;;;5058627;28;20128;-80
2022/11/18 08:16:35;;;;;;;34.50;16.73;;;;;;;;;;5061435;28;20144;-78
2022/11/18 08:19:02;;;;;;;42.00;17.80;;;;;;;;;;5056400;28;20164;-81
2022/11/18 08:21:28;;;;;;;32.00;15.57;;;;;;;;;;5056393;28;20571;-80
2022/11/18 08:23:55;;;;;;;37.55;17.40;;;;;;;;;;5054722;28;20344;-80
2022/11/18 08:26:23;;;;;;;38.80;16.52;;;;;;;;;;5055182;28;20055;-81
2022/11/18 08:28:50;;;;;;;44.10;17.50;;;;;;;;;;5056074;28;20057;-81
2022/11/18 08:31:18;;;;;;;35.50;16.30;;;;;;;;;;5058028;28;20048;-80
2022/11/18 08:33:44;;;;;;;33.33;16.25;;;;;;;;;;5055272;28;20057;-80
2022/11/18 08:36:19;;;;;;;31.30;15.30;;;;;;;;;;5057140;28;20140;-79
2022/11/18 08:38:46;;;;;;;35.13;15.52;;;;;;;;;;5053924;28;20477;-78
2022/11/18 08:41:13;;;;;;;31.15;15.18;;;;;;;;;;5054352;28;20056;-79
2022/11/18 08:43:40;;;;;;;30.55;14.52;;;;;;;;;;5053700;28;20432;-79
2022/11/18 08:46:06;;;;;;;31.77;14.27;;;;;;;;;;5055729;28;20069;-80
2022/11/18 08:48:32;;;;;;;30.73;14.57;;;;;;;;;;5053842;28;20477;-77
2022/11/18 08:50:59;;;;;;;25.90;12.82;;;;;;;;;;5053830;28;20045;-79
2022/11/18 08:53:25;;;;;;;29.20;13.68;;;;;;;;;;5049978;28;20053;-77
2022/11/18 08:55:58;;;;;;;28.38;13.63;;;;;;;;;;5052072;28;20515;-78
2022/11/18 08:58:25;;;;;;;34.67;13.63;;;;;;;;;;5051106;28;20048;-78
2022/11/18 09:00:52;;;;;;;29.83;13.73;;;;;;;;;;5054413;28;20075;-80
2022/11/18 09:03:19;;;;;;;30.15;13.77;;;;;;;;;;5050247;28;20136;-79
2022/11/18 09:05:45;;;;;;;34.88;13.85;;;;;;;;;;5051981;28;20048;-79
2022/11/18 09:08:11;;;;;;;30.13;13.63;;;;;;;;;;5052537;28;20660;-80
2022/11/18 09:10:38;;;;;;;26.80;12.90;;;;;;;;;;5053316;28;20055;-79
2022/11/18 09:13:04;;;;;;;29.48;13.45;;;;;;;;;;5052055;28;20125;-81
2022/11/18 09:15:51;;;;;;;35.97;12.35;;;;;;;;;;5044978;28;20525;-79
2022/11/18 09:18:17;;;;;;;26.52;12.23;;;;;;;;;;5031493;28;20517;-79
2022/11/18 09:20:52;;;;;;;32.03;13.93;;;;;;;;;;5032066;28;20055;-79
2022/11/18 09:23:18;;;;;;;33.10;15.27;;;;;;;;;;5030931;28;20053;-80
2022/11/18 09:25:45;;;;;;;33.03;13.57;;;;;;;;;;5031897;28;20075;-79
2022/11/18 09:28:11;;;;;;;32.88;14.40;;;;;;;;;;5030367;28;20049;-78
2022/11/18 09:30:37;;;;;;;37.13;15.20;;;;;;;;;;5031727;28;20046;-78
2022/11/18 09:33:05;;;;;;;38.08;14.13;;;;;;;;;;5028609;28;20049;-78
2022/11/18 09:35:32;;;;;;;37.28;14.02;;;;;;;;;;5029103;28;20045;-79
2022/11/18 09:37:59;;;;;;;33.03;15.00;;;;;;;;;;5029456;28;20071;-79
2022/11/18 09:40:25;;;;;;;32.83;15.32;;;;;;;;;;5044921;28;20049;-78
2022/11/18 09:43:21;;;;;;;40.08;14.30;;;;;;;;;;5049930;28;20053;-80
2022/11/18 09:45:53;;;;;;;34.42;14.68;;;;;;;;;;5034915;28;20052;-80
2022/11/18 09:49:11;;;;;;;31.70;14.75;;;;;;;;;;5049176;28;20151;-80
2022/11/18 09:51:08;;;;;;;33.90;13.93;;;;;;;;;;5048116;28;20049;-77
2022/11/18 09:53:38;;;;;;;35.58;13.65;;;;;;;;;;5050199;28;20091;-80
2022/11/18 09:56:07;;;;;;;31.95;14.25;;;;;;;;;;5050925;28;20068;-80
2022/11/18 09:58:34;;;;;;;29.80;13.57;;;;;;;;;;5049364;28;20060;-79
2022/11/18 10:01:01;;;;;;;30.13;13.70;;;;;;;;;;5050064;28;20041;-80
2022/11/18 10:03:29;;;;;;;34.95;15.05;;;;;;;;;;5057649;28;20136;-76
2022/11/18 10:05:57;;;;;;;39.60;15.02;;;;;;;;;;5061922;28;20049;-78
2022/11/18 10:08:27;;;;;;;34.78;14.50;;;;;;;;;;5056597;28;20052;-79
2022/11/18 10:10:56;;;;;;;36.45;14.73;;;;;;;;;;5053263;28;20049;-81
2022/11/18 10:13:29;;;;;;;26.23;13.38;;;;;;;;;;5052816;28;20057;-79
2022/11/18 10:15:59;;;;;;;32.33;14.55;;;;;;;;;;5054586;28;20059;-82
2022/11/18 10:18:28;;;;;;;33.85;15.10;;;;;;;;;;5061046;28;20079;-79
2022/11/18 10:21:44;;;;;;;32.42;14.15;;;;;;;;;;5053441;28;20064;-78
2022/11/18 10:24:18;;;;;;;33.75;14.85;;;;;;;;;;5042957;28;20057;-78
2022/11/18 10:26:46;;;;;;;33.83;14.13;;;;;;;;;;5052593;28;20072;-81
2022/11/18 10:29:12;;;;;;;41.90;16.30;;;;;;;;;;5051980;28;20049;-81
2022/11/18 10:31:51;;;;;;;41.55;17.10;;;;;;;;;;5052178;28;20064;-79
2022/11/18 10:34:17;;;;;;;41.97;16.83;;;;;;;;;;5052073;28;20045;-80
2022/11/18 10:36:57;;;;;;;43.95;17.92;;;;;;;;;;5051324;28;20045;-79
2022/11/18 10:39:23;;;;;;;42.55;18.00;;;;;;;;;;5054344;28;20056;-82
2022/11/18 10:41:57;;;;;;;41.25;17.73;;;;;;;;;;5049526;28;20060;-81
2022/11/18 10:44:34;;;;;;;38.97;17.65;;;;;;;;;;5051034;28;20135;-81
2022/11/18 10:47:27;;;;;;;45.25;18.00;;;;;;;;;;5050247;28;20068;-81
2022/11/18 10:49:55;;;;;;;47.60;19.08;;;;;;;;;;5048919;28;20055;-82
2022/11/18 10:52:21;;;;;;;45.50;19.17;;;;;;;;;;5050202;28;20041;-78
2022/11/18 10:55:06;;;;;;;48.45;20.02;;;;;;;;;;5049675;28;20052;-79
2022/11/18 10:57:35;;;;;;;52.33;19.83;;;;;;;;;;5050106;28;20045;-83
2022/11/18 11:00:01;;;;;;;78.13;19.92;;;;;;;;;;5049297;28;20306;-80
2022/11/18 11:02:38;;;;;;;68.15;20.35;;;;;;;;;;5052173;28;20095;-81
2022/11/18 11:05:34;;;;;;;52.25;18.90;;;;;;;;;;5053478;28;20053;-82
2022/11/18 11:08:00;;;;;;;58.40;19.27;;;;;;;;;;5038132;28;20070;-80
2022/11/18 11:10:54;;;;;;;70.85;20.58;;;;;;;;;;5049026;28;20485;-83
2022/11/18 11:13:22;;;;;;;60.88;17.77;;;;;;;;;;5048497;28;20045;-83
2022/11/18 11:15:50;;;;;;;51.90;18.73;;;;;;;;;;5049457;28;20045;-82
2022/11/18 11:21:12;;;;;;;46.47;18.73;;;;;;;;;;5049188;28;20041;-83
2022/11/18 11:23:38;;;;;;;51.88;17.92;;;;;;;;;;5041887;28;20164;-82
2022/11/18 11:26:20;;;;;;;53.88;17.73;;;;;;;;;;5050337;28;20501;-82
2022/11/18 11:29:13;;;;;;;40.55;17.40;;;;;;;;;;5049781;28;20041;-81
2022/11/18 11:31:40;;;;;;;47.85;18.50;;;;;;;;;;5046630;28;20056;-80
2022/11/18 11:34:26;;;;;;;45.28;17.65;;;;;;;;;;5050353;28;20041;-82
2022/11/18 11:37:08;;;;;;;53.17;18.30;;;;;;;;;;5052739;28;20516;-81
2022/11/18 11:39:49;;;;;;;45.63;18.25;;;;;;;;;;5044604;28;20547;-80
2022/11/18 11:42:25;;;;;;;44.05;18.02;;;;;;;;;;5039033;28;20297;-80
2022/11/18 11:45:05;;;;;;;41.95;16.42;;;;;;;;;;5043907;28;20057;-79
2022/11/18 11:47:56;;;;;;;38.90;16.55;;;;;;;;;;5032077;28;20381;-80
2022/11/18 11:50:27;;;;;;;31.65;13.45;;;;;;;;;;5045268;28;20429;-80
2022/11/18 11:53:12;;;;;;;32.15;12.82;;;;;;;;;;5044986;28;20136;-80
2022/11/18 11:55:41;;;;;;;25.35;10.65;;;;;;;;;;5045139;28;20588;-80
2022/11/18 11:58:17;;;;;;;26.88;11.25;;;;;;;;;;5042237;28;20123;-80
2022/11/18 12:00:57;;;;;;;25.30;11.13;;;;;;;;;;5048678;28;20393;-82
2022/11/18 12:03:36;;;;;;;29.05;11.73;;;;;;;;;;5048848;28;20053;-80
2022/11/18 12:06:02;;;;;;;31.88;13.05;;;;;;;;;;5050229;28;20056;-80
2022/11/18 12:08:31;;;;;;;36.42;14.50;;;;;;;;;;5052649;28;20064;-80
2022/11/18 12:11:16;;;;;;;35.88;15.07;;;;;;;;;;5045604;28;20052;-81
2022/11/18 12:13:51;;;;;;;41.80;16.45;;;;;;;;;;5047371;28;20385;-81
2022/11/18 12:16:22;;;;;;;39.38;16.02;;;;;;;;;;5056573;28;20041;-80
2022/11/18 12:18:54;;;;;;;41.13;15.95;;;;;;;;;;5041703;28;20060;-80
2022/11/18 12:21:39;;;;;;;36.00;14.90;;;;;;;;;;5049822;28;20071;-80
2022/11/18 12:24:18;;;;;;;39.13;15.52;;;;;;;;;;5052597;28;20536;-81
2022/11/18 12:26:45;;;;;;;34.75;13.82;;;;;;;;;;5053909;28;20658;-79
2022/11/18 12:29:18;;;;;;;36.42;14.73;;;;;;;;;;5056395;28;20055;-79
2022/11/18 12:31:53;;;;;;;35.20;13.85;;;;;;;;;;5050734;28;20130;-78
2022/11/18 12:34:23;;;;;;;37.85;13.43;;;;;;;;;;5052764;28;20049;-79
2022/11/18 12:36:49;;;;;;;33.97;12.65;;;;;;;;;;5052412;28;20045;-80
2022/11/18 12:39:22;;;;;;;29.58;12.45;;;;;;;;;;5054126;28;20052;-78
2022/11/18 12:44:45;;;;;;;26.03;11.10;;;;;;;;;;5063947;28;20052;-77
2022/11/18 12:47:12;;;;;;;25.63;10.32;;;;;;;;;;5068652;28;20355;-79
2022/11/18 12:50:05;;;;;;;24.83;10.77;;;;;;;;;;5062029;28;20115;-79
2022/11/18 12:52:31;;;;;;;21.00;10.15;;;;;;;;;;5061122;28;20132;-80
2022/11/18 12:55:01;;;;;;;20.05;9.32;;;;;;;;;;5061932;28;20049;-79
2022/11/18 12:57:28;;;;;;;20.63;8.40;;;;;;;;;;5061332;28;20166;-79
2022/11/18 12:59:54;;;;;;;20.02;8.05;;;;;;;;;;5062841;28;20048;-81
2022/11/18 13:02:22;;;;;;;19.33;8.57;;;;;;;;;;5066051;28;20128;-78
2022/11/18 13:05:07;;;;;;;17.80;8.15;;;;;;;;;;5065820;28;20137;-80
2022/11/18 13:10:28;;;;;;;18.95;7.10;;;;;;;;;;5063233;28;20059;-80
2022/11/18 13:12:54;;;;;;;16.83;7.38;;;;;;;;;;5058753;28;20049;-79
2022/11/18 13:18:10;;;;;;;15.55;7.05;;;;;;;;;;5054754;28;20631;-79
2022/11/18 13:20:38;;;;;;;17.08;6.85;;;;;;;;;;5060459;28;20131;-78
2022/11/18 13:26:03;;;;;;;15.95;7.53;;;;;;;;;;5056149;28;20044;-77
2022/11/18 13:28:48;;;;;;;18.83;8.15;;;;;;;;;;5052520;28;20057;-77
2022/11/18 13:31:33;;;;;;;17.90;7.85;;;;;;;;;;5055315;28;20037;-78
2022/11/18 13:34:17;;;;;;;21.83;8.52;;;;;;;;;;5060382;28;20045;-75
2022/11/18 13:36:44;;;;;;;20.67;8.55;;;;;;;;;;5049235;28;20075;-79
2022/11/18 13:39:19;;;;;;;23.70;10.00;;;;;;;;;;5051324;28;20080;-80
2022/11/18 13:41:56;;;;;;;23.85;10.32;;;;;;;;;;5045537;28;20049;-80
2022/11/18 13:44:24;;;;;;;24.42;9.48;;;;;;;;;;5050592;28;20523;-77
2022/11/18 13:46:53;;;;;;;23.95;10.77;;;;;;;;;;5050758;28;20064;-78
2022/11/18 13:49:22;;;;;;;22.50;10.10;;;;;;;;;;5050087;28;20202;-78
2022/11/18 13:51:50;;;;;;;26.05;11.23;;;;;;;;;;5051660;28;20489;-78
2022/11/18 13:54:21;;;;;;;25.73;11.35;;;;;;;;;;5057315;28;20047;-79
2022/11/18 13:56:48;;;;;;;26.33;11.77;;;;;;;;;;5057874;28;20151;-81
2022/11/18 13:59:17;;;;;;;29.05;12.00;;;;;;;;;;5052933;28;20051;-80
2022/11/18 14:01:51;;;;;;;28.88;11.65;;;;;;;;;;5052242;28;20049;-80
2022/11/18 14:04:19;;;;;;;27.73;12.95;;;;;;;;;;5052393;28;20057;-80
2022/11/18 14:06:45;;;;;;;27.65;12.18;;;;;;;;;;5052350;28;20049;-80
2022/11/18 14:09:24;;;;;;;29.40;12.73;;;;;;;;;;5051903;28;20067;-78
2022/11/18 14:11:59;;;;;;;31.35;13.98;;;;;;;;;;5053714;28;20061;-79
2022/11/18 14:14:31;;;;;;;31.02;13.52;;;;;;;;;;5051217;28;20144;-80
2022/11/18 14:17:13;;;;;;;30.58;13.57;;;;;;;;;;5052383;28;20048;-79
2022/11/18 14:19:40;;;;;;;34.45;14.68;;;;;;;;;;5052041;28;20228;-80
2022/11/18 14:22:14;;;;;;;36.38;16.65;;;;;;;;;;5053889;28;20048;-80
2022/11/18 14:24:41;;;;;;;30.63;13.17;;;;;;;;;;5054315;28;20059;-79
2022/11/18 14:27:27;;;;;;;40.95;17.27;;;;;;;;;;5051701;28;20048;-79
2022/11/18 14:29:53;;;;;;;40.03;17.67;;;;;;;;;;5050707;28;20428;-80
2022/11/18 14:32:20;;;;;;;38.63;17.98;;;;;;;;;;5050545;28;20041;-79
2022/11/18 14:34:56;;;;;;;41.28;18.08;;;;;;;;;;5051009;28;20045;-79
2022/11/18 14:37:22;;;;;;;44.53;19.60;;;;;;;;;;5050256;28;20060;-80
2022/11/18 14:39:55;;;;;;;47.47;20.83;;;;;;;;;;5051683;28;20041;-80
2022/11/18 14:42:22;;;;;;;45.67;20.05;;;;;;;;;;5051116;28;20534;-80
2022/11/18 14:44:49;;;;;;;48.67;22.33;;;;;;;;;;5051278;28;20076;-80
2022/11/18 14:47:25;;;;;;;51.58;22.70;;;;;;;;;;5052218;28;20053;-81
2022/11/18 14:49:51;;;;;;;48.33;20.90;;;;;;;;;;5051127;28;20853;-81
2022/11/18 14:52:17;;;;;;;50.13;21.77;;;;;;;;;;5051931;28;20175;-80
2022/11/18 14:54:44;;;;;;;51.83;23.15;;;;;;;;;;5052087;28;20048;-79
2022/11/18 14:57:12;;;;;;;55.30;24.50;;;;;;;;;;5051471;28;20490;-79
2022/11/18 14:59:39;;;;;;;51.83;23.48;;;;;;;;;;5047557;28;20049;-82
2022/11/18 15:02:11;;;;;;;49.83;23.23;;;;;;;;;;5050180;28;20148;-81
2022/11/18 15:04:38;;;;;;;48.97;21.98;;;;;;;;;;5056527;28;20053;-80
2022/11/18 15:07:04;;;;;;;54.08;23.33;;;;;;;;;;5058708;28;20080;-80
2022/11/18 15:09:30;;;;;;;53.50;23.50;;;;;;;;;;5052791;28;20060;-80
2022/11/18 15:11:57;;;;;;;51.38;22.52;;;;;;;;;;5052944;28;20051;-81